createdAt,value
2022-12-31T00:04:07.994Z,1.20
2022-12-31T00:09:11.317Z,1.00
2022-12-31T00:14:15.791Z,1.20
2022-12-31T00:19:18.725Z,0.60
2022-12-31T00:24:21.693Z,0.00
2022-12-31T00:29:26.308Z,0.40
2022-12-31T00:34:29.349Z,1.00
2022-12-31T00:39:32.249Z,1.00
2022-12-31T00:44:36.516Z,0.00
2022-12-31T00:49:39.521Z,1.00
2022-12-31T00:54:42.443Z,0.60
2022-12-31T00:59:46.779Z,0.00
2022-12-31T01:04:49.785Z,0.00
2022-12-31T01:09:54.382Z,0.60
2022-12-31T01:14:58.723Z,0.00
2022-12-31T01:20:01.647Z,1.00
2022-12-31T01:25:04.928Z,0.80
2022-12-31T01:30:10.630Z,0.00
2022-12-31T01:35:13.965Z,1.00
2022-12-31T01:40:16.943Z,0.40
2022-12-31T01:45:21.575Z,0.00
2022-12-31T01:50:27.831Z,1.00
2022-12-31T01:55:32.932Z,0.00
2022-12-31T02:00:37.285Z,0.00
2022-12-31T02:05:42.565Z,0.00
2022-12-31T02:10:45.589Z,0.00
2022-12-31T02:15:53.604Z,0.00
2022-12-31T02:21:29.056Z,0.00
2022-12-31T02:26:42.211Z,0.00
2022-12-31T02:31:47.392Z,1.00
2022-12-31T02:36:50.276Z,1.00
2022-12-31T02:41:53.942Z,0.00
2022-12-31T02:47:04.509Z,0.20
2022-12-31T02:52:09.704Z,0.60
2022-12-31T02:57:14.680Z,0.80
2022-12-31T03:02:19.918Z,0.00
2022-12-31T03:07:23.859Z,0.00
2022-12-31T03:12:45.409Z,0.00
2022-12-31T03:17:54.308Z,0.00
2022-12-31T03:22:57.075Z,0.00
2022-12-31T03:27:59.854Z,0.60
2022-12-31T03:33:04.287Z,0.00
2022-12-31T03:38:07.179Z,0.00
2022-12-31T03:43:10.146Z,0.00
2022-12-31T03:48:14.294Z,0.00
2022-12-31T03:53:17.042Z,0.00
2022-12-31T03:58:19.838Z,0.00
2022-12-31T04:03:24.046Z,0.40
2022-12-31T04:08:26.957Z,0.00
2022-12-31T04:13:29.734Z,0.00
2022-12-31T04:18:33.900Z,0.00
2022-12-31T04:23:36.764Z,0.00
2022-12-31T04:28:39.544Z,0.00
2022-12-31T04:33:43.638Z,0.60
2022-12-31T04:38:46.421Z,0.00
2022-12-31T04:43:50.608Z,0.00
2022-12-31T04:48:54.736Z,0.00
2022-12-31T04:53:57.643Z,0.00
2022-12-31T04:59:00.409Z,1.00
2022-12-31T05:04:04.896Z,0.00
2022-12-31T05:09:07.869Z,0.00
2022-12-31T05:14:11.449Z,1.00
2022-12-31T05:19:15.591Z,1.00
2022-12-31T05:24:18.364Z,0.00
2022-12-31T05:29:21.100Z,0.00
2022-12-31T05:34:25.254Z,0.00
2022-12-31T05:39:28.115Z,0.40
2022-12-31T05:44:30.928Z,0.60
2022-12-31T05:49:35.153Z,0.00
2022-12-31T05:54:37.956Z,0.00
2022-12-31T05:59:40.730Z,0.00
2022-12-31T06:04:44.837Z,1.00
2022-12-31T06:09:47.693Z,0.00
2022-12-31T06:14:50.457Z,0.00
2022-12-31T06:19:54.621Z,0.00
2022-12-31T06:24:57.403Z,0.00
2022-12-31T06:30:00.328Z,0.00
2022-12-31T06:35:05.037Z,0.00
2022-12-31T06:40:09.261Z,0.00
2022-12-31T06:45:12.503Z,0.00
2022-12-31T06:50:16.788Z,0.00
2022-12-31T06:55:20.399Z,0.00
2022-12-31T07:00:23.782Z,0.00
2022-12-31T07:05:33.556Z,0.00
2022-12-31T07:10:40.647Z,0.00
2022-12-31T07:15:52.222Z,0.00
2022-12-31T07:20:57.056Z,0.00
2022-12-31T07:26:04.364Z,0.00
2022-12-31T07:31:08.609Z,0.00
2022-12-31T07:36:17.697Z,0.00
2022-12-31T07:41:24.881Z,0.00
2022-12-31T07:46:31.381Z,0.00
2022-12-31T07:51:36.238Z,0.00
2022-12-31T07:56:38.987Z,0.00
2022-12-31T08:01:45.163Z,0.00
2022-12-31T08:06:52.294Z,0.20
2022-12-31T08:11:56.923Z,0.00
2022-12-31T08:17:00.127Z,0.40
2022-12-31T08:22:15.884Z,0.60
2022-12-31T08:27:21.904Z,0.00
2022-12-31T08:32:26.046Z,0.20
2022-12-31T08:37:38.437Z,0.20
2022-12-31T08:42:43.120Z,1.00
2022-12-31T08:47:48.930Z,1.00
2022-12-31T08:52:53.942Z,0.20
2022-12-31T08:58:07.249Z,1.00
2022-12-31T09:03:24.570Z,0.80
2022-12-31T09:08:35.095Z,0.60
2022-12-31T09:13:44.971Z,1.00
2022-12-31T09:18:47.835Z,1.00
2022-12-31T09:23:52.475Z,0.60
2022-12-31T09:28:58.030Z,2.00
2022-12-31T09:34:03.282Z,1.00
2022-12-31T09:39:10.015Z,1.40
2022-12-31T09:44:39.248Z,1.20
2022-12-31T09:50:16.019Z,3.00
2022-12-31T09:55:31.995Z,1.00
2022-12-31T10:00:37.278Z,2.00
2022-12-31T10:06:00.602Z,2.00
2022-12-31T10:11:07.099Z,1.00
2022-12-31T10:16:26.133Z,0.00
2022-12-31T10:21:36.061Z,1.00
2022-12-31T10:27:08.041Z,1.20
2022-12-31T10:32:19.146Z,0.00
2022-12-31T10:37:25.025Z,1.00
2022-12-31T10:43:14.696Z,1.20
2022-12-31T10:48:39.068Z,1.00
2022-12-31T10:54:12.241Z,1.00
2022-12-31T10:59:40.852Z,1.00
2022-12-31T11:05:06.262Z,0.00
2022-12-31T11:10:46.624Z,1.20
2022-12-31T11:15:58.924Z,1.00
2022-12-31T11:21:16.168Z,1.00
2022-12-31T11:26:22.961Z,1.00
2022-12-31T11:31:36.425Z,1.00
2022-12-31T11:36:43.258Z,1.00
2022-12-31T11:41:49.646Z,1.00
2022-12-31T11:46:59.587Z,1.00
2022-12-31T11:52:11.098Z,2.00
2022-12-31T11:57:18.407Z,1.00
2022-12-31T12:02:26.258Z,1.00
2022-12-31T12:07:29.429Z,1.00
2022-12-31T12:12:39.800Z,1.00
2022-12-31T12:17:44.100Z,0.00
2022-12-31T12:22:50.593Z,1.00
2022-12-31T12:27:53.917Z,1.80
2022-12-31T12:32:58.982Z,1.00
2022-12-31T12:38:03.722Z,1.00
2022-12-31T12:43:06.891Z,1.00
2022-12-31T12:48:19.569Z,1.60
2022-12-31T12:53:32.185Z,1.60
2022-12-31T12:58:41.975Z,1.00
2022-12-31T13:04:32.881Z,1.00
2022-12-31T13:09:27.014Z,1.00
2022-12-31T13:14:32.451Z,1.40
2022-12-31T13:19:39.538Z,1.00
2022-12-31T13:24:48.431Z,1.00
2022-12-31T13:29:51.277Z,1.00
2022-12-31T13:34:58.813Z,1.00
2022-12-31T13:40:03.637Z,0.20
2022-12-31T13:45:10.595Z,1.00
2022-12-31T13:50:18.612Z,0.20
2022-12-31T13:55:22.541Z,0.40
2022-12-31T14:00:26.593Z,1.00
2022-12-31T14:05:33.210Z,0.00
2022-12-31T14:10:43.944Z,0.60
2022-12-31T14:15:48.687Z,0.00
2022-12-31T14:20:54.671Z,0.00
2022-12-31T14:25:58.672Z,0.20
2022-12-31T14:31:09.358Z,0.20
2022-12-31T14:36:22.649Z,0.60
2022-12-31T14:41:38.548Z,1.00
2022-12-31T14:46:46.156Z,0.00
2022-12-31T14:51:50.267Z,0.40
2022-12-31T14:56:54.177Z,0.00
2022-12-31T15:01:57.957Z,0.20
2022-12-31T15:07:07.041Z,0.00
2022-12-31T15:12:19.440Z,0.60
2022-12-31T15:17:27.058Z,1.00
2022-12-31T15:22:37.327Z,1.00
2022-12-31T15:27:42.239Z,0.20
2022-12-31T15:32:47.135Z,0.40
2022-12-31T15:38:00.488Z,1.00
2022-12-31T15:43:04.476Z,0.60
2022-12-31T15:48:10.685Z,1.20
2022-12-31T15:53:18.870Z,1.00
2022-12-31T15:58:23.584Z,1.40
2022-12-31T16:03:28.166Z,0.00
2022-12-31T16:08:33.142Z,1.00
2022-12-31T16:13:36.836Z,1.00
2022-12-31T16:18:40.506Z,0.60
2022-12-31T16:23:50.197Z,0.40
2022-12-31T16:28:52.970Z,1.00
2022-12-31T16:34:04.543Z,1.00
2022-12-31T16:39:24.202Z,0.00
2022-12-31T16:44:27.791Z,0.80
2022-12-31T16:49:31.469Z,0.00
2022-12-31T16:54:36.747Z,0.00
2022-12-31T16:59:41.332Z,1.00
2022-12-31T17:04:49.715Z,0.00
2022-12-31T17:10:04.814Z,0.60
2022-12-31T17:15:08.589Z,1.00
2022-12-31T17:20:20.998Z,1.00
2022-12-31T17:25:26.447Z,2.00
2022-12-31T17:30:41.829Z,2.00
2022-12-31T17:35:45.140Z,15.60
2022-12-31T17:40:51.627Z,13.60
2022-12-31T17:45:54.811Z,13.40
2022-12-31T17:50:59.668Z,10.00
2022-12-31T17:56:04.724Z,9.00
2022-12-31T18:01:08.389Z,21.20
2022-12-31T18:06:16.349Z,37.75
2022-12-31T18:11:21.957Z,15.00
2022-12-31T18:16:24.767Z,16.00
2022-12-31T18:21:28.601Z,18.80
2022-12-31T18:26:34.487Z,18.20
2022-12-31T18:31:37.324Z,16.00
2022-12-31T18:36:40.131Z,15.20
2022-12-31T18:41:46.552Z,14.00
2022-12-31T18:46:50.247Z,14.00
2022-12-31T18:51:54.235Z,12.20
2022-12-31T18:56:58.361Z,14.60
2022-12-31T19:02:01.416Z,11.40
2022-12-31T19:07:04.366Z,15.00
2022-12-31T19:12:10.926Z,14.40
2022-12-31T19:17:14.240Z,13.40
2022-12-31T19:22:17.028Z,13.00
2022-12-31T19:27:21.205Z,10.00
2022-12-31T19:32:23.972Z,9.40
2022-12-31T19:37:26.766Z,11.80
2022-12-31T19:42:30.896Z,11.00
2022-12-31T19:47:33.622Z,7.60
2022-12-31T19:52:36.433Z,8.60
2022-12-31T19:57:40.545Z,9.60
2022-12-31T20:02:43.702Z,8.40
2022-12-31T20:07:46.611Z,9.20
2022-12-31T20:12:50.851Z,9.20
2022-12-31T20:17:53.597Z,9.00
2022-12-31T20:22:56.457Z,9.40
2022-12-31T20:28:00.567Z,8.20
2022-12-31T20:33:03.277Z,7.60
2022-12-31T20:38:06.230Z,7.60
2022-12-31T20:43:10.411Z,7.20
2022-12-31T20:48:13.169Z,7.40
2022-12-31T20:53:15.947Z,7.60
2022-12-31T20:58:20.762Z,8.00
2022-12-31T21:04:02.798Z,7.00
2022-12-31T21:08:46.585Z,7.00
2022-12-31T21:13:50.770Z,7.00
2022-12-31T21:18:54.136Z,6.00
2022-12-31T21:23:56.875Z,5.20
2022-12-31T21:29:01.259Z,7.40
2022-12-31T21:34:04.066Z,5.80
2022-12-31T21:39:06.892Z,6.40
2022-12-31T21:44:11.036Z,6.20
2022-12-31T21:49:13.944Z,6.40
2022-12-31T21:54:36.684Z,4.20
2022-12-31T22:00:32.079Z,6.20
2022-12-31T22:05:25.124Z,4.40
2022-12-31T22:10:28.163Z,5.40
2022-12-31T22:15:32.321Z,6.00
2022-12-31T22:20:35.130Z,5.80
2022-12-31T22:25:38.631Z,3.40
2022-12-31T22:30:42.814Z,7.60
2022-12-31T22:35:45.572Z,6.00
2022-12-31T22:40:48.511Z,4.00
2022-12-31T22:45:52.835Z,3.00
2022-12-31T22:50:56.851Z,4.40
2022-12-31T22:55:59.665Z,6.00
2022-12-31T23:01:06.931Z,6.40
2022-12-31T23:06:11.039Z,58.25
2022-12-31T23:11:14.114Z,147.00
2022-12-31T23:16:35.687Z,91.50
2022-12-31T23:21:56.233Z,89.50
2022-12-31T23:26:59.188Z,86.50
2022-12-31T23:32:03.354Z,83.75
2022-12-31T23:37:06.304Z,85.75
2022-12-31T23:42:09.190Z,85.75
2022-12-31T23:47:13.339Z,85.25
2022-12-31T23:52:16.137Z,83.25
2022-12-31T23:57:19.059Z,84.25
